TAN02 EGNX-EGNS
Flight info
| Callsign | TAN02 |
|---|---|
| Flight time | 0h 48m |
| Altitude | 8000 |
| Route | TNT UQ4 VABKA DCT WAL L10 KELLY |
| Aircraft | C414/L-SDFGRY/C |
Departure
| Time | 2026-04-21 16:11 |
|---|---|
| Airport | East Midlands Airport (EGNX) |
Arrival
| Time | 2026-04-21 17:00 |
|---|---|
| Airport | Isle of Man Airport (EGNS) |
| Time | Latitude | Longitude | Altitude | Speed | Heading |
|---|---|---|---|---|---|
| 2026-04-21 15:13 | 52.82663 | -1.33952 | 305 ft | 0 kts | 149° |
| 2026-04-21 15:29 | 52.82666 | -1.33954 | 305 ft | 0 kts | 149° |
| 2026-04-21 15:29 | 52.82666 | -1.33955 | 305 ft | 0 kts | 149° |
| 2026-04-21 15:43 | 52.82676 | -1.33964 | 305 ft | 0 kts | 149° |
| 2026-04-21 15:45 | 52.82674 | -1.33962 | 305 ft | 3 kts | 133° |
| 2026-04-21 15:46 | 52.82683 | -1.33934 | 305 ft | 2 kts | 43° |
| 2026-04-21 15:46 | 52.82684 | -1.33931 | 305 ft | 0 kts | 52° |
| 2026-04-21 16:06 | 52.82720 | -1.33847 | 304 ft | 10 kts | 59° |
| 2026-04-21 16:06 | 52.82768 | -1.33728 | 303 ft | 13 kts | 39° |
| 2026-04-21 16:07 | 52.82837 | -1.33723 | 303 ft | 7 kts | 346° |
| 2026-04-21 16:07 | 52.82884 | -1.33729 | 305 ft | 13 kts | 342° |
| 2026-04-21 16:07 | 52.82912 | -1.33870 | 304 ft | 18 kts | 268° |
| 2026-04-21 16:07 | 52.82905 | -1.34068 | 305 ft | 16 kts | 267° |
| 2026-04-21 16:08 | 52.82905 | -1.34413 | 307 ft | 22 kts | 268° |
| 2026-04-21 16:08 | 52.82908 | -1.34701 | 309 ft | 25 kts | 264° |
| 2026-04-21 16:08 | 52.82904 | -1.34904 | 310 ft | 12 kts | 296° |
| 2026-04-21 16:09 | 52.82935 | -1.34935 | 311 ft | 0 kts | 353° |
| 2026-04-21 16:09 | 52.82992 | -1.34939 | 311 ft | 11 kts | 358° |
| 2026-04-21 16:09 | 52.83055 | -1.34915 | 311 ft | 9 kts | 43° |
| 2026-04-21 16:10 | 52.83062 | -1.34860 | 310 ft | 0 kts | 88° |
| 2026-04-21 16:10 | 52.83063 | -1.34823 | 309 ft | 21 kts | 84° |
| 2026-04-21 16:11 | 52.83085 | -1.34216 | 305 ft | 81 kts | 90° |
| 2026-04-21 16:11 | 52.83083 | -1.33188 | 697 ft | 80 kts | 81° |
| 2026-04-21 16:11 | 52.83111 | -1.32215 | 1014 ft | 97 kts | 83° |
| 2026-04-21 16:11 | 52.83142 | -1.30965 | 1314 ft | 119 kts | 86° |
| 2026-04-21 16:12 | 52.83114 | -1.30012 | 1512 ft | 132 kts | 93° |
| 2026-04-21 16:12 | 52.82974 | -1.27825 | 1916 ft | 153 kts | 93° |
| 2026-04-21 16:12 | 52.82905 | -1.26040 | 2218 ft | 158 kts | 84° |
| 2026-04-21 16:12 | 52.83262 | -1.24308 | 2500 ft | 165 kts | 60° |
| 2026-04-21 16:13 | 52.84106 | -1.22967 | 2758 ft | 174 kts | 34° |
| 2026-04-21 16:13 | 52.85296 | -1.22467 | 3024 ft | 183 kts | 7° |
| 2026-04-21 16:13 | 52.86558 | -1.23089 | 3298 ft | 202 kts | 335° |
| 2026-04-21 16:13 | 52.87550 | -1.24844 | 3565 ft | 216 kts | 311° |
| 2026-04-21 16:14 | 52.88390 | -1.26879 | 3810 ft | 216 kts | 309° |
| 2026-04-21 16:14 | 52.89235 | -1.28922 | 4069 ft | 214 kts | 310° |
| 2026-04-21 16:14 | 52.90088 | -1.30945 | 4327 ft | 215 kts | 310° |
| 2026-04-21 16:14 | 52.90951 | -1.32980 | 4596 ft | 218 kts | 310° |
| 2026-04-21 16:15 | 52.91826 | -1.35048 | 4859 ft | 220 kts | 310° |
| 2026-04-21 16:15 | 52.92705 | -1.37136 | 5115 ft | 221 kts | 309° |
| 2026-04-21 16:15 | 52.93589 | -1.39236 | 5385 ft | 223 kts | 309° |
| 2026-04-21 16:15 | 52.94477 | -1.41343 | 5634 ft | 222 kts | 309° |
| 2026-04-21 16:16 | 52.95358 | -1.43446 | 5901 ft | 222 kts | 309° |
| 2026-04-21 16:16 | 52.96247 | -1.45555 | 6155 ft | 222 kts | 309° |
| 2026-04-21 16:16 | 52.97120 | -1.47631 | 6420 ft | 223 kts | 309° |
| 2026-04-21 16:16 | 52.98014 | -1.49750 | 6688 ft | 225 kts | 309° |
| 2026-04-21 16:17 | 52.98917 | -1.51860 | 6936 ft | 223 kts | 309° |
| 2026-04-21 16:17 | 52.99810 | -1.53937 | 7180 ft | 220 kts | 309° |
| 2026-04-21 16:17 | 53.00690 | -1.55986 | 7420 ft | 216 kts | 309° |
| 2026-04-21 16:17 | 53.01555 | -1.58001 | 7669 ft | 215 kts | 309° |
| 2026-04-21 16:18 | 53.02414 | -1.60017 | 7918 ft | 213 kts | 309° |
| 2026-04-21 16:18 | 53.03289 | -1.62052 | 7998 ft | 221 kts | 309° |
| 2026-04-21 16:18 | 53.04200 | -1.64180 | 7999 ft | 229 kts | 308° |
| 2026-04-21 16:18 | 53.05119 | -1.66376 | 8010 ft | 234 kts | 304° |
| 2026-04-21 16:19 | 53.05734 | -1.68917 | 8000 ft | 239 kts | 286° |
| 2026-04-21 16:19 | 53.06170 | -1.71596 | 8006 ft | 240 kts | 287° |
| 2026-04-21 16:19 | 53.06644 | -1.74282 | 8000 ft | 242 kts | 288° |
| 2026-04-21 16:19 | 53.07109 | -1.76971 | 8005 ft | 242 kts | 287° |
| 2026-04-21 16:20 | 53.07562 | -1.79666 | 8005 ft | 242 kts | 287° |
| 2026-04-21 16:20 | 53.08017 | -1.82358 | 8004 ft | 242 kts | 287° |
| 2026-04-21 16:20 | 53.08475 | -1.85052 | 8000 ft | 242 kts | 287° |
| 2026-04-21 16:20 | 53.08930 | -1.87710 | 8002 ft | 242 kts | 287° |
| 2026-04-21 16:21 | 53.09386 | -1.90404 | 8002 ft | 241 kts | 287° |
| 2026-04-21 16:21 | 53.09841 | -1.93102 | 8006 ft | 243 kts | 287° |
| 2026-04-21 16:21 | 53.10297 | -1.95815 | 7997 ft | 243 kts | 287° |
| 2026-04-21 16:21 | 53.10752 | -1.98517 | 7999 ft | 242 kts | 287° |
| 2026-04-21 16:22 | 53.11053 | -2.00302 | 8001 ft | 241 kts | 287° |
| 2026-04-21 16:22 | 53.11660 | -2.03901 | 8005 ft | 242 kts | 287° |
| 2026-04-21 16:22 | 53.12113 | -2.06591 | 7994 ft | 241 kts | 287° |
| 2026-04-21 16:22 | 53.12559 | -2.09277 | 7993 ft | 241 kts | 286° |
| 2026-04-21 16:23 | 53.13007 | -2.11951 | 8007 ft | 240 kts | 287° |
| 2026-04-21 16:23 | 53.13458 | -2.14644 | 8007 ft | 241 kts | 286° |
| 2026-04-21 16:23 | 53.13905 | -2.17331 | 8007 ft | 241 kts | 287° |
| 2026-04-21 16:23 | 53.14377 | -2.20003 | 8005 ft | 239 kts | 292° |
| 2026-04-21 16:24 | 53.14848 | -2.21648 | 8002 ft | 238 kts | 300° |
| 2026-04-21 16:24 | 53.15600 | -2.24106 | 8004 ft | 238 kts | 298° |
| 2026-04-21 16:24 | 53.16335 | -2.26586 | 8002 ft | 239 kts | 298° |
| 2026-04-21 16:24 | 53.17313 | -2.29876 | 7999 ft | 238 kts | 298° |
| 2026-04-21 16:25 | 53.18049 | -2.32351 | 8003 ft | 239 kts | 298° |
| 2026-04-21 16:25 | 53.18788 | -2.34831 | 8003 ft | 238 kts | 298° |
| 2026-04-21 16:25 | 53.19290 | -2.36504 | 8000 ft | 239 kts | 298° |
| 2026-04-21 16:25 | 53.20029 | -2.38997 | 8009 ft | 239 kts | 298° |
| 2026-04-21 16:26 | 53.20756 | -2.41452 | 8013 ft | 240 kts | 298° |
| 2026-04-21 16:26 | 53.21497 | -2.43952 | 8007 ft | 239 kts | 298° |
| 2026-04-21 16:26 | 53.22234 | -2.46433 | 7997 ft | 239 kts | 298° |
| 2026-04-21 16:26 | 53.22971 | -2.48930 | 8002 ft | 240 kts | 297° |
| 2026-04-21 16:27 | 53.23708 | -2.51429 | 8001 ft | 239 kts | 298° |
| 2026-04-21 16:27 | 53.24444 | -2.53908 | 8000 ft | 239 kts | 297° |
| 2026-04-21 16:27 | 53.25175 | -2.56387 | 7998 ft | 238 kts | 297° |
| 2026-04-21 16:27 | 53.25908 | -2.58879 | 7997 ft | 240 kts | 297° |
| 2026-04-21 16:28 | 53.26642 | -2.61370 | 7999 ft | 238 kts | 297° |
| 2026-04-21 16:28 | 53.27374 | -2.63859 | 8004 ft | 239 kts | 297° |
| 2026-04-21 16:28 | 53.28109 | -2.66361 | 8000 ft | 239 kts | 297° |
| 2026-04-21 16:28 | 53.28839 | -2.68848 | 8003 ft | 238 kts | 297° |
| 2026-04-21 16:29 | 53.29566 | -2.71333 | 8012 ft | 238 kts | 297° |
| 2026-04-21 16:29 | 53.30277 | -2.73797 | 8004 ft | 239 kts | 294° |
| 2026-04-21 16:29 | 53.30862 | -2.76387 | 8006 ft | 237 kts | 291° |
| 2026-04-21 16:29 | 53.31443 | -2.78963 | 7999 ft | 237 kts | 291° |
| 2026-04-21 16:30 | 53.32032 | -2.81546 | 8001 ft | 237 kts | 291° |
| 2026-04-21 16:30 | 53.32615 | -2.84116 | 7999 ft | 237 kts | 291° |
| 2026-04-21 16:30 | 53.33199 | -2.86704 | 8001 ft | 237 kts | 291° |
| 2026-04-21 16:30 | 53.33783 | -2.89296 | 7998 ft | 238 kts | 291° |
| 2026-04-21 16:31 | 53.34368 | -2.91891 | 8003 ft | 238 kts | 291° |
| 2026-04-21 16:31 | 53.34951 | -2.94481 | 8004 ft | 237 kts | 291° |
| 2026-04-21 16:31 | 53.35531 | -2.97061 | 8009 ft | 237 kts | 291° |
| 2026-04-21 16:31 | 53.36104 | -2.99614 | 8005 ft | 238 kts | 291° |
| 2026-04-21 16:32 | 53.36684 | -3.02202 | 8008 ft | 237 kts | 291° |
| 2026-04-21 16:32 | 53.37264 | -3.04796 | 8000 ft | 237 kts | 291° |
| 2026-04-21 16:32 | 53.37843 | -3.07379 | 8002 ft | 237 kts | 291° |
| 2026-04-21 16:32 | 53.38423 | -3.09974 | 8007 ft | 238 kts | 291° |
| 2026-04-21 16:33 | 53.39006 | -3.12571 | 8003 ft | 238 kts | 292° |
| 2026-04-21 16:33 | 53.39832 | -3.14942 | 8003 ft | 236 kts | 309° |
| 2026-04-21 16:33 | 53.40803 | -3.17162 | 7996 ft | 236 kts | 307° |
| 2026-04-21 16:33 | 53.41747 | -3.19411 | 8000 ft | 236 kts | 307° |
| 2026-04-21 16:34 | 53.42700 | -3.21655 | 7993 ft | 235 kts | 307° |
| 2026-04-21 16:34 | 53.43657 | -3.23891 | 7991 ft | 235 kts | 307° |
| 2026-04-21 16:34 | 53.44596 | -3.26092 | 7988 ft | 235 kts | 307° |
| 2026-04-21 16:34 | 53.45545 | -3.28323 | 7984 ft | 235 kts | 307° |
| 2026-04-21 16:35 | 53.46495 | -3.30560 | 7986 ft | 235 kts | 307° |
| 2026-04-21 16:35 | 53.47444 | -3.32793 | 7987 ft | 235 kts | 307° |
| 2026-04-21 16:35 | 53.48394 | -3.35030 | 7985 ft | 235 kts | 307° |
| 2026-04-21 16:35 | 53.49340 | -3.37262 | 7984 ft | 235 kts | 307° |
| 2026-04-21 16:36 | 53.50289 | -3.39502 | 7987 ft | 235 kts | 307° |
| 2026-04-21 16:36 | 53.51236 | -3.41737 | 7994 ft | 235 kts | 307° |
| 2026-04-21 16:36 | 53.52183 | -3.43972 | 8000 ft | 234 kts | 307° |
| 2026-04-21 16:36 | 53.53127 | -3.46207 | 7996 ft | 234 kts | 306° |
| 2026-04-21 16:37 | 53.54067 | -3.48445 | 7995 ft | 234 kts | 306° |
| 2026-04-21 16:37 | 53.55009 | -3.50677 | 7996 ft | 234 kts | 306° |
| 2026-04-21 16:37 | 53.55953 | -3.52913 | 7998 ft | 234 kts | 306° |
| 2026-04-21 16:37 | 53.56884 | -3.55124 | 7995 ft | 234 kts | 306° |
| 2026-04-21 16:38 | 53.57826 | -3.57365 | 7999 ft | 234 kts | 306° |
| 2026-04-21 16:38 | 53.58767 | -3.59602 | 7995 ft | 234 kts | 306° |
| 2026-04-21 16:38 | 53.59707 | -3.61842 | 8000 ft | 234 kts | 306° |
| 2026-04-21 16:38 | 53.60645 | -3.64077 | 7998 ft | 234 kts | 306° |
| 2026-04-21 16:39 | 53.61587 | -3.66324 | 7997 ft | 234 kts | 306° |
| 2026-04-21 16:39 | 53.62526 | -3.68567 | 7996 ft | 234 kts | 306° |
| 2026-04-21 16:39 | 53.63466 | -3.70811 | 7998 ft | 234 kts | 306° |
| 2026-04-21 16:39 | 53.64401 | -3.73049 | 7999 ft | 234 kts | 306° |
| 2026-04-21 16:40 | 53.65336 | -3.75290 | 8001 ft | 234 kts | 306° |
| 2026-04-21 16:40 | 53.66273 | -3.77533 | 8005 ft | 234 kts | 306° |
| 2026-04-21 16:40 | 53.67207 | -3.79773 | 8004 ft | 234 kts | 306° |
| 2026-04-21 16:40 | 53.68128 | -3.81984 | 8004 ft | 233 kts | 306° |
| 2026-04-21 16:41 | 53.69060 | -3.84223 | 8002 ft | 233 kts | 306° |
| 2026-04-21 16:41 | 53.69990 | -3.86460 | 8004 ft | 233 kts | 306° |
| 2026-04-21 16:41 | 53.70922 | -3.88702 | 8003 ft | 233 kts | 305° |
| 2026-04-21 16:41 | 53.71854 | -3.90948 | 8005 ft | 233 kts | 305° |
| 2026-04-21 16:42 | 53.72782 | -3.93186 | 8007 ft | 233 kts | 305° |
| 2026-04-21 16:42 | 53.73712 | -3.95430 | 8006 ft | 233 kts | 305° |
| 2026-04-21 16:42 | 53.74643 | -3.97681 | 8005 ft | 233 kts | 305° |
| 2026-04-21 16:42 | 53.75561 | -3.99901 | 8007 ft | 233 kts | 306° |
| 2026-04-21 16:43 | 53.76489 | -4.02146 | 8008 ft | 232 kts | 305° |
| 2026-04-21 16:43 | 53.77415 | -4.04386 | 8012 ft | 232 kts | 305° |
| 2026-04-21 16:43 | 53.78339 | -4.06627 | 8011 ft | 232 kts | 305° |
| 2026-04-21 16:43 | 53.79263 | -4.08869 | 8011 ft | 232 kts | 305° |
| 2026-04-21 16:44 | 53.80187 | -4.11113 | 8010 ft | 232 kts | 305° |
| 2026-04-21 16:44 | 53.81109 | -4.13354 | 8012 ft | 232 kts | 305° |
| 2026-04-21 16:44 | 53.82028 | -4.15592 | 8011 ft | 232 kts | 305° |
| 2026-04-21 16:44 | 53.82949 | -4.17832 | 8011 ft | 231 kts | 305° |
| 2026-04-21 16:45 | 53.83867 | -4.20071 | 8012 ft | 231 kts | 305° |
| 2026-04-21 16:45 | 53.84788 | -4.22317 | 7782 ft | 239 kts | 305° |
| 2026-04-21 16:45 | 53.85746 | -4.24651 | 7540 ft | 244 kts | 305° |
| 2026-04-21 16:45 | 53.86716 | -4.27025 | 7293 ft | 246 kts | 305° |
| 2026-04-21 16:46 | 53.87691 | -4.29412 | 7044 ft | 246 kts | 305° |
| 2026-04-21 16:46 | 53.88666 | -4.31799 | 6799 ft | 246 kts | 305° |
| 2026-04-21 16:46 | 53.89639 | -4.34183 | 6541 ft | 245 kts | 305° |
| 2026-04-21 16:46 | 53.90608 | -4.36560 | 6277 ft | 245 kts | 305° |
| 2026-04-21 16:47 | 53.91583 | -4.38905 | 6003 ft | 242 kts | 296° |
| 2026-04-21 16:47 | 53.91945 | -4.41678 | 5734 ft | 242 kts | 272° |
| 2026-04-21 16:47 | 53.91983 | -4.44489 | 5480 ft | 241 kts | 270° |
| 2026-04-21 16:47 | 53.92114 | -4.47329 | 5227 ft | 241 kts | 277° |
| 2026-04-21 16:48 | 53.92375 | -4.50137 | 4966 ft | 241 kts | 279° |
| 2026-04-21 16:48 | 53.92648 | -4.52940 | 4706 ft | 241 kts | 279° |
| 2026-04-21 16:48 | 53.92917 | -4.55743 | 4440 ft | 240 kts | 279° |
| 2026-04-21 16:48 | 53.93181 | -4.58534 | 4183 ft | 239 kts | 279° |
| 2026-04-21 16:49 | 53.93441 | -4.61327 | 3922 ft | 238 kts | 279° |
| 2026-04-21 16:49 | 53.93692 | -4.64106 | 3666 ft | 238 kts | 279° |
| 2026-04-21 16:49 | 53.93939 | -4.66843 | 3403 ft | 237 kts | 279° |
| 2026-04-21 16:49 | 53.94182 | -4.69582 | 3151 ft | 231 kts | 279° |
| 2026-04-21 16:50 | 53.94416 | -4.72255 | 2891 ft | 227 kts | 279° |
| 2026-04-21 16:50 | 53.94647 | -4.74888 | 2626 ft | 224 kts | 279° |
| 2026-04-21 16:50 | 53.94858 | -4.77346 | 2355 ft | 190 kts | 279° |
| 2026-04-21 16:50 | 53.95034 | -4.79448 | 2051 ft | 173 kts | 279° |
| 2026-04-21 16:51 | 53.95418 | -4.81255 | 1982 ft | 155 kts | 299° |
| 2026-04-21 16:51 | 53.95884 | -4.82835 | 1987 ft | 145 kts | 298° |
| 2026-04-21 16:51 | 53.96326 | -4.84346 | 1992 ft | 140 kts | 298° |
| 2026-04-21 16:51 | 53.96818 | -4.85746 | 1998 ft | 137 kts | 308° |
| 2026-04-21 16:52 | 53.97367 | -4.87070 | 1994 ft | 137 kts | 308° |
| 2026-04-21 16:52 | 53.97979 | -4.88280 | 1996 ft | 134 kts | 327° |
| 2026-04-21 16:52 | 53.98731 | -4.89164 | 1993 ft | 132 kts | 328° |
| 2026-04-21 16:52 | 53.99472 | -4.90057 | 1997 ft | 130 kts | 328° |
| 2026-04-21 16:53 | 54.00252 | -4.90746 | 1993 ft | 124 kts | 349° |
| 2026-04-21 16:53 | 54.01086 | -4.91143 | 1994 ft | 125 kts | 348° |
| 2026-04-21 16:53 | 54.01918 | -4.91561 | 1997 ft | 125 kts | 348° |
| 2026-04-21 16:53 | 54.02756 | -4.91757 | 1997 ft | 119 kts | 21° |
| 2026-04-21 16:54 | 54.03425 | -4.91002 | 2000 ft | 114 kts | 40° |
| 2026-04-21 16:54 | 54.03994 | -4.90098 | 1995 ft | 111 kts | 64° |
| 2026-04-21 16:54 | 54.04342 | -4.88944 | 2001 ft | 110 kts | 58° |
| 2026-04-21 16:54 | 54.04779 | -4.87881 | 1997 ft | 109 kts | 57° |
| 2026-04-21 16:55 | 54.05204 | -4.86825 | 1997 ft | 110 kts | 58° |
| 2026-04-21 16:55 | 54.05641 | -4.85754 | 1992 ft | 110 kts | 58° |
| 2026-04-21 16:55 | 54.06006 | -4.84619 | 1999 ft | 110 kts | 63° |
| 2026-04-21 16:55 | 54.06337 | -4.83445 | 2002 ft | 110 kts | 78° |
| 2026-04-21 16:56 | 54.06497 | -4.82167 | 2002 ft | 110 kts | 78° |
| 2026-04-21 16:56 | 54.06639 | -4.80882 | 2004 ft | 111 kts | 80° |
| 2026-04-21 16:56 | 54.06767 | -4.79583 | 2006 ft | 112 kts | 81° |
| 2026-04-21 16:56 | 54.06896 | -4.78256 | 2018 ft | 117 kts | 80° |
| 2026-04-21 16:57 | 54.07010 | -4.76853 | 2046 ft | 122 kts | 81° |
| 2026-04-21 16:57 | 54.07140 | -4.75370 | 1866 ft | 128 kts | 83° |
| 2026-04-21 16:57 | 54.07266 | -4.73863 | 1661 ft | 130 kts | 82° |
| 2026-04-21 16:57 | 54.07387 | -4.72440 | 1450 ft | 113 kts | 83° |
| 2026-04-21 16:58 | 54.07491 | -4.71185 | 1269 ft | 103 kts | 81° |
| 2026-04-21 16:58 | 54.07591 | -4.70011 | 1082 ft | 98 kts | 80° |
| 2026-04-21 16:58 | 54.07689 | -4.68870 | 889 ft | 96 kts | 81° |
| 2026-04-21 16:58 | 54.07785 | -4.67755 | 726 ft | 96 kts | 82° |
| 2026-04-21 16:59 | 54.07874 | -4.66641 | 549 ft | 93 kts | 81° |
| 2026-04-21 16:59 | 54.07965 | -4.65583 | 390 ft | 88 kts | 82° |
| 2026-04-21 16:59 | 54.08052 | -4.64552 | 229 ft | 87 kts | 82° |
| 2026-04-21 16:59 | 54.08146 | -4.63553 | 97 ft | 82 kts | 71° |
| 2026-04-21 17:00 | 54.08197 | -4.62970 | 36 ft | 61 kts | 49° |
| 2026-04-21 17:00 | 54.08303 | -4.62852 | 38 ft | 16 kts | 296° |
| 2026-04-21 17:00 | 54.08337 | -4.62967 | 36 ft | 16 kts | 297° |
| 2026-04-21 17:00 | 54.08400 | -4.63179 | 36 ft | 14 kts | 297° |
| 2026-04-21 17:01 | 54.08444 | -4.63324 | 35 ft | 13 kts | 301° |
| 2026-04-21 17:01 | 54.08517 | -4.63337 | 36 ft | 9 kts | 342° |
| 2026-04-21 17:01 | 54.08561 | -4.63400 | 37 ft | 8 kts | 315° |
| 2026-04-21 17:01 | 54.08594 | -4.63400 | 37 ft | 4 kts | 53° |
| 2026-04-21 17:02 | 54.08602 | -4.63386 | 37 ft | 2 kts | 45° |
| 2026-04-21 17:02 | 54.08608 | -4.63375 | 38 ft | 0 kts | 46° |